Time;durP1;ratioP1;P1;durP2;ratioP2;P2;SDS_P1;SDS_P2;PMS_P1;PMS_P2;Temp;Humidity;BMP_temperature;BMP_pressure;BME280_temperature;BME280_humidity;BME280_pressure;Samples;Min_cycle;Max_cycle;Signal;HPM_P1;HPM_P2
2024/03/07 00:01:28;;;;;;;15.93;14.55;;;;;;;;;;5057590;28;20396;-83
2024/03/07 00:03:54;;;;;;;15.27;14.00;;;;;;;;;;5058824;28;20409;-83
2024/03/07 00:06:20;;;;;;;14.50;13.20;;;;;;;;;;5058824;28;20377;-83
2024/03/07 00:08:48;;;;;;;13.30;12.30;;;;;;;;;;5059124;28;20548;-83
2024/03/07 00:11:14;;;;;;;14.15;13.05;;;;;;;;;;5058543;28;20373;-83
2024/03/07 00:13:40;;;;;;;14.73;13.52;;;;;;;;;;5058821;28;20435;-83
2024/03/07 00:16:06;;;;;;;13.65;12.55;;;;;;;;;;5057892;28;20381;-83
2024/03/07 00:18:32;;;;;;;13.23;12.13;;;;;;;;;;5058511;28;20473;-83
2024/03/07 00:20:58;;;;;;;13.33;12.33;;;;;;;;;;5058306;28;20889;-83
2024/03/07 00:23:24;;;;;;;14.65;13.40;;;;;;;;;;5058199;28;20409;-83
2024/03/07 00:25:50;;;;;;;13.85;12.70;;;;;;;;;;5057567;28;20381;-83
2024/03/07 00:28:17;;;;;;;14.00;12.90;;;;;;;;;;5057847;28;20374;-83
2024/03/07 00:30:45;;;;;;;13.60;12.60;;;;;;;;;;5057716;28;20377;-83
2024/03/07 00:33:11;;;;;;;13.55;12.45;;;;;;;;;;5058002;28;20902;-83
2024/03/07 00:35:37;;;;;;;15.13;13.82;;;;;;;;;;5058280;28;20389;-83
2024/03/07 00:38:03;;;;;;;13.93;12.75;;;;;;;;;;5058326;28;20386;-83
2024/03/07 00:40:29;;;;;;;14.10;12.90;;;;;;;;;;5057560;28;20444;-83
2024/03/07 00:42:56;;;;;;;13.98;12.70;;;;;;;;;;5056809;28;20774;-83
2024/03/07 00:45:22;;;;;;;14.50;13.30;;;;;;;;;;5058099;28;20888;-83
2024/03/07 00:47:48;;;;;;;14.18;12.88;;;;;;;;;;5058328;28;20468;-83
2024/03/07 00:50:14;;;;;;;14.00;12.90;;;;;;;;;;5058051;28;20813;-84
2024/03/07 00:52:40;;;;;;;15.65;14.25;;;;;;;;;;5056733;28;20393;-83
2024/03/07 00:55:10;;;;;;;14.33;13.03;;;;;;;;;;5057714;28;20472;-83
2024/03/07 00:57:36;;;;;;;15.07;13.77;;;;;;;;;;5057780;28;20397;-83
2024/03/07 01:00:02;;;;;;;14.68;13.48;;;;;;;;;;5057811;28;20443;-83
2024/03/07 01:02:28;;;;;;;15.90;14.50;;;;;;;;;;5058027;28;20380;-83
2024/03/07 01:04:55;;;;;;;16.33;14.82;;;;;;;;;;5057602;28;20774;-83
2024/03/07 01:07:21;;;;;;;16.92;15.32;;;;;;;;;;5055943;28;20413;-83
2024/03/07 01:09:47;;;;;;;15.50;14.15;;;;;;;;;;5057350;28;20374;-84
2024/03/07 01:12:13;;;;;;;14.48;13.30;;;;;;;;;;5057744;28;20381;-83
2024/03/07 01:14:39;;;;;;;15.97;14.57;;;;;;;;;;5057557;28;20397;-84
2024/03/07 01:17:07;;;;;;;15.60;14.27;;;;;;;;;;5057969;28;20390;-83
2024/03/07 01:19:34;;;;;;;16.67;15.20;;;;;;;;;;5057258;28;20759;-83
2024/03/07 01:22:00;;;;;;;16.67;15.07;;;;;;;;;;5057616;28;20475;-83
2024/03/07 01:24:26;;;;;;;15.30;13.90;;;;;;;;;;5057738;28;20405;-83
2024/03/07 01:26:52;;;;;;;16.65;15.20;;;;;;;;;;5056902;28;20392;-83
2024/03/07 01:29:18;;;;;;;16.50;14.90;;;;;;;;;;5056957;28;20395;-83
2024/03/07 01:31:44;;;;;;;14.88;13.65;;;;;;;;;;5056944;28;20911;-83
2024/03/07 01:34:10;;;;;;;15.67;14.20;;;;;;;;;;5056659;28;20378;-83
2024/03/07 01:36:36;;;;;;;16.00;14.60;;;;;;;;;;5057041;28;20381;-83
2024/03/07 01:39:03;;;;;;;16.40;15.00;;;;;;;;;;5065207;28;20404;-83
2024/03/07 01:41:29;;;;;;;15.23;13.93;;;;;;;;;;5064952;28;20405;-83
2024/03/07 01:43:55;;;;;;;15.95;14.55;;;;;;;;;;5056831;28;20405;-83
2024/03/07 01:46:21;;;;;;;15.60;14.23;;;;;;;;;;5057261;28;20732;-83
2024/03/07 01:48:48;;;;;;;15.03;13.73;;;;;;;;;;5053256;28;20390;-83
2024/03/07 01:51:14;;;;;;;14.50;13.30;;;;;;;;;;5055820;28;20384;-83
2024/03/07 01:53:40;;;;;;;14.63;13.43;;;;;;;;;;5056160;28;20735;-83
2024/03/07 01:56:06;;;;;;;14.60;13.40;;;;;;;;;;5056344;28;20398;-83
2024/03/07 01:58:32;;;;;;;14.70;13.50;;;;;;;;;;5056199;28;20381;-83
2024/03/07 02:00:59;;;;;;;15.60;14.30;;;;;;;;;;5056063;28;20797;-83
2024/03/07 02:03:25;;;;;;;15.52;14.18;;;;;;;;;;5055668;28;20410;-83
2024/03/07 02:05:51;;;;;;;15.80;14.40;;;;;;;;;;5055851;28;20389;-83
2024/03/07 02:08:19;;;;;;;16.58;14.98;;;;;;;;;;5055345;28;20519;-83
2024/03/07 02:10:46;;;;;;;17.13;15.52;;;;;;;;;;5055827;28;20380;-83
2024/03/07 02:13:12;;;;;;;16.15;14.65;;;;;;;;;;5055683;28;20377;-83
2024/03/07 02:15:38;;;;;;;17.38;15.70;;;;;;;;;;5055487;28;20465;-83
2024/03/07 02:18:04;;;;;;;16.65;14.88;;;;;;;;;;5055253;28;20413;-83
2024/03/07 02:20:30;;;;;;;17.88;16.17;;;;;;;;;;5055544;28;20452;-83
2024/03/07 02:22:56;;;;;;;17.23;15.63;;;;;;;;;;5055941;28;20435;-83
2024/03/07 02:25:22;;;;;;;18.20;16.30;;;;;;;;;;5056251;28;20401;-83
2024/03/07 02:27:48;;;;;;;17.90;16.15;;;;;;;;;;5055158;28;20373;-83
2024/03/07 02:30:14;;;;;;;17.77;16.08;;;;;;;;;;5056229;28;20378;-83
2024/03/07 02:32:40;;;;;;;18.00;16.23;;;;;;;;;;5055728;28;20373;-83
2024/03/07 02:35:07;;;;;;;17.23;15.57;;;;;;;;;;5055807;28;20424;-83
2024/03/07 02:37:34;;;;;;;17.92;16.08;;;;;;;;;;5055997;28;20885;-83
2024/03/07 02:40:01;;;;;;;19.45;17.38;;;;;;;;;;5055723;28;20882;-83
2024/03/07 02:42:27;;;;;;;19.43;17.53;;;;;;;;;;5056193;28;20448;-83
2024/03/07 02:44:53;;;;;;;18.00;16.10;;;;;;;;;;5055469;28;20770;-83
2024/03/07 02:47:19;;;;;;;17.65;15.93;;;;;;;;;;5055429;28;20455;-83
2024/03/07 02:49:45;;;;;;;17.33;15.53;;;;;;;;;;5055882;28;20401;-83
2024/03/07 02:52:11;;;;;;;16.50;14.93;;;;;;;;;;5055546;28;20404;-83
2024/03/07 02:54:37;;;;;;;17.40;15.73;;;;;;;;;;5055555;28;20470;-83
2024/03/07 02:57:03;;;;;;;17.40;15.75;;;;;;;;;;5055630;28;20434;-83
2024/03/07 02:59:29;;;;;;;18.52;16.58;;;;;;;;;;5055494;28;20390;-83
2024/03/07 03:01:55;;;;;;;18.20;16.30;;;;;;;;;;5055429;28;20388;-83
2024/03/07 03:04:21;;;;;;;19.08;17.10;;;;;;;;;;5055607;28;20477;-83
2024/03/07 03:06:47;;;;;;;20.00;17.73;;;;;;;;;;5055393;28;20456;-83
2024/03/07 03:09:17;;;;;;;19.77;17.60;;;;;;;;;;5055636;28;20380;-83
2024/03/07 03:11:43;;;;;;;20.05;17.83;;;;;;;;;;5055549;28;20378;-83
2024/03/07 03:14:10;;;;;;;21.65;17.83;;;;;;;;;;5055389;28;20378;-83
2024/03/07 03:16:36;;;;;;;22.13;18.67;;;;;;;;;;5047814;28;20442;-83
2024/03/07 03:19:02;;;;;;;22.75;18.23;;;;;;;;;;5035700;28;20379;-83
2024/03/07 03:21:28;;;;;;;23.13;19.33;;;;;;;;;;5036164;28;20379;-83
2024/03/07 03:23:54;;;;;;;43.58;31.52;;;;;;;;;;5035634;28;20984;-83
2024/03/07 03:26:21;;;;;;;33.08;23.65;;;;;;;;;;5037839;28;20505;-83
2024/03/07 03:28:47;;;;;;;66.03;44.75;;;;;;;;;;5056058;28;20844;-83
2024/03/07 03:31:14;;;;;;;37.20;26.55;;;;;;;;;;5055339;28;20468;-83
2024/03/07 03:33:40;;;;;;;35.80;27.23;;;;;;;;;;5055518;28;20385;-83
2024/03/07 03:36:07;;;;;;;32.15;24.52;;;;;;;;;;5056042;28;20799;-83
2024/03/07 03:38:33;;;;;;;33.90;23.77;;;;;;;;;;5055330;28;20782;-83
2024/03/07 03:40:59;;;;;;;31.77;25.95;;;;;;;;;;5055399;28;20460;-83
2024/03/07 03:43:25;;;;;;;26.13;19.53;;;;;;;;;;5055532;28;20860;-83
2024/03/07 03:45:51;;;;;;;26.13;19.75;;;;;;;;;;5054926;28;20381;-83
2024/03/07 03:48:17;;;;;;;26.83;19.92;;;;;;;;;;5055238;28;20381;-82
2024/03/07 03:50:43;;;;;;;30.40;21.08;;;;;;;;;;5052135;28;20471;-83
2024/03/07 03:53:09;;;;;;;28.52;22.30;;;;;;;;;;5055528;28;20381;-83
2024/03/07 03:55:36;;;;;;;26.58;20.60;;;;;;;;;;5055364;28;20377;-83
2024/03/07 03:58:02;;;;;;;28.42;21.63;;;;;;;;;;5054528;28;20468;-83
2024/03/07 04:00:28;;;;;;;27.42;20.63;;;;;;;;;;5054905;28;20482;-83
2024/03/07 04:02:54;;;;;;;28.73;20.63;;;;;;;;;;5054311;28;20417;-83
2024/03/07 04:05:21;;;;;;;26.13;20.30;;;;;;;;;;5035019;28;20458;-83
2024/03/07 04:07:47;;;;;;;27.83;20.57;;;;;;;;;;5035471;28;20542;-83
2024/03/07 04:10:16;;;;;;;26.15;19.92;;;;;;;;;;5035100;28;20379;-83
2024/03/07 04:12:42;;;;;;;26.55;20.30;;;;;;;;;;5034891;28;20443;-83
2024/03/07 04:15:09;;;;;;;29.27;20.80;;;;;;;;;;5037998;28;20386;-83
2024/03/07 04:17:35;;;;;;;26.40;20.45;;;;;;;;;;5038528;28;20422;-83
2024/03/07 04:20:05;;;;;;;26.38;19.67;;;;;;;;;;5039417;28;20375;-83
2024/03/07 04:22:31;;;;;;;24.30;19.10;;;;;;;;;;5038725;28;20793;-83
2024/03/07 04:24:57;;;;;;;27.55;19.58;;;;;;;;;;5038374;28;20411;-83
2024/03/07 04:27:25;;;;;;;24.88;19.55;;;;;;;;;;5038659;28;20454;-83
2024/03/07 04:29:51;;;;;;;26.33;19.63;;;;;;;;;;5038689;28;20445;-83
2024/03/07 04:32:18;;;;;;;21.50;18.08;;;;;;;;;;5038746;28;20390;-83
2024/03/07 04:34:46;;;;;;;22.77;17.97;;;;;;;;;;5038020;28;20533;-83
2024/03/07 04:37:12;;;;;;;23.08;18.45;;;;;;;;;;5038456;28;20764;-83
2024/03/07 04:39:39;;;;;;;22.50;18.05;;;;;;;;;;5038170;28;20384;-83
2024/03/07 04:42:06;;;;;;;21.88;17.52;;;;;;;;;;5037990;28;20801;-83
2024/03/07 04:44:33;;;;;;;22.13;17.83;;;;;;;;;;5038376;28;20493;-83
2024/03/07 04:47:00;;;;;;;21.77;17.63;;;;;;;;;;5042117;28;20425;-83
2024/03/07 04:49:27;;;;;;;22.13;18.23;;;;;;;;;;5041820;28;20405;-83
2024/03/07 04:51:53;;;;;;;21.52;17.80;;;;;;;;;;5039153;28;20486;-83
2024/03/07 04:54:20;;;;;;;19.00;16.58;;;;;;;;;;5038677;28;20815;-83
2024/03/07 04:56:46;;;;;;;18.50;16.02;;;;;;;;;;5038546;28;20386;-83
2024/03/07 04:59:13;;;;;;;20.05;17.00;;;;;;;;;;5038543;28;20379;-83
2024/03/07 05:01:42;;;;;;;20.08;16.73;;;;;;;;;;5038354;28;20386;-83
2024/03/07 05:04:08;;;;;;;18.45;15.27;;;;;;;;;;5038310;28;20411;-83
2024/03/07 05:06:34;;;;;;;18.67;16.08;;;;;;;;;;5038135;28;20377;-83
2024/03/07 05:09:01;;;;;;;17.33;15.48;;;;;;;;;;5037473;28;20375;-82
2024/03/07 05:11:28;;;;;;;17.05;15.35;;;;;;;;;;5037466;28;20375;-82
2024/03/07 05:13:54;;;;;;;15.82;14.20;;;;;;;;;;5037603;28;20834;-83
2024/03/07 05:16:20;;;;;;;16.48;14.88;;;;;;;;;;5036031;28;20917;-83
2024/03/07 05:18:46;;;;;;;16.13;14.52;;;;;;;;;;5051172;28;20409;-83
2024/03/07 05:24:11;;;;;;;16.52;14.82;;;;;;;;;;5033075;28;20409;-83
2024/03/07 05:26:40;;;;;;;17.13;15.32;;;;;;;;;;5056283;28;20365;-83
2024/03/07 05:29:09;;;;;;;17.58;15.68;;;;;;;;;;5055714;28;20766;-82
2024/03/07 05:31:36;;;;;;;15.37;13.77;;;;;;;;;;5057126;28;20381;-82
2024/03/07 05:34:08;;;;;;;15.65;13.98;;;;;;;;;;5056998;28;20386;-82
2024/03/07 05:36:34;;;;;;;16.53;14.77;;;;;;;;;;5056114;28;20885;-82
2024/03/07 05:39:02;;;;;;;17.27;14.93;;;;;;;;;;5056937;28;20736;-82
2024/03/07 05:41:29;;;;;;;17.08;15.27;;;;;;;;;;5053910;28;20376;-83
2024/03/07 05:43:55;;;;;;;19.35;15.70;;;;;;;;;;5057925;28;20763;-82
2024/03/07 05:46:21;;;;;;;17.83;15.93;;;;;;;;;;5057246;28;20902;-82
2024/03/07 05:48:51;;;;;;;18.63;16.00;;;;;;;;;;5057475;28;20961;-82
2024/03/07 05:51:17;;;;;;;20.90;16.77;;;;;;;;;;5057054;28;20386;-82
2024/03/07 05:53:43;;;;;;;20.02;16.58;;;;;;;;;;5055970;28;20427;-82
2024/03/07 05:56:09;;;;;;;19.15;15.93;;;;;;;;;;5056790;28;20495;-82
2024/03/07 05:58:35;;;;;;;22.35;16.88;;;;;;;;;;5056840;28;20389;-82
2024/03/07 06:01:01;;;;;;;21.98;16.98;;;;;;;;;;5057294;28;20813;-82
2024/03/07 06:03:27;;;;;;;20.50;16.67;;;;;;;;;;5056714;28;20484;-82
2024/03/07 06:05:53;;;;;;;19.20;15.95;;;;;;;;;;5056901;28;20496;-82
2024/03/07 06:08:21;;;;;;;20.17;17.08;;;;;;;;;;5056519;28;20440;-82
2024/03/07 06:10:47;;;;;;;18.92;16.35;;;;;;;;;;5055098;28;20755;-82
2024/03/07 06:13:14;;;;;;;20.00;16.95;;;;;;;;;;5054644;28;20708;-82
2024/03/07 06:15:41;;;;;;;18.00;15.13;;;;;;;;;;5055676;28;20786;-82
2024/03/07 06:18:08;;;;;;;20.48;16.75;;;;;;;;;;5055569;28;20385;-82
2024/03/07 06:20:34;;;;;;;21.13;16.80;;;;;;;;;;5056156;28;20381;-83
2024/03/07 06:23:04;;;;;;;21.70;16.77;;;;;;;;;;5055082;28;20420;-83
2024/03/07 06:25:36;;;;;;;20.02;16.73;;;;;;;;;;5056247;28;20401;-83
2024/03/07 06:28:09;;;;;;;24.83;18.27;;;;;;;;;;5055881;28;20404;-83
2024/03/07 06:30:45;;;;;;;25.77;19.50;;;;;;;;;;5056268;28;20401;-82
2024/03/07 06:33:12;;;;;;;26.02;19.42;;;;;;;;;;5056647;28;20373;-82
2024/03/07 06:35:38;;;;;;;26.33;20.02;;;;;;;;;;5055952;28;20859;-82
2024/03/07 06:38:08;;;;;;;27.58;19.77;;;;;;;;;;5055641;28;20384;-82
2024/03/07 06:40:37;;;;;;;28.85;20.38;;;;;;;;;;5056148;28;20381;-82
2024/03/07 06:43:04;;;;;;;28.17;21.08;;;;;;;;;;5056255;28;20929;-82
2024/03/07 06:45:31;;;;;;;28.97;21.23;;;;;;;;;;5055146;28;20405;-82
2024/03/07 06:47:57;;;;;;;30.02;21.40;;;;;;;;;;5054879;28;20472;-82
2024/03/07 06:50:23;;;;;;;26.67;21.05;;;;;;;;;;5055295;28;20426;-82
2024/03/07 06:52:49;;;;;;;33.97;23.17;;;;;;;;;;5054111;28;20435;-83
2024/03/07 06:55:19;;;;;;;30.95;22.15;;;;;;;;;;5055158;28;20396;-82
2024/03/07 06:57:45;;;;;;;32.22;21.70;;;;;;;;;;5055224;28;20389;-82
2024/03/07 07:00:12;;;;;;;33.33;24.30;;;;;;;;;;5055172;28;20771;-83
2024/03/07 07:02:41;;;;;;;31.17;22.50;;;;;;;;;;5054918;28;20389;-82
2024/03/07 07:05:18;;;;;;;32.63;22.17;;;;;;;;;;5054918;28;20429;-82
2024/03/07 07:07:44;;;;;;;30.80;22.02;;;;;;;;;;5055602;28;20868;-82
2024/03/07 07:10:15;;;;;;;29.60;21.13;;;;;;;;;;5055500;28;20431;-83
2024/03/07 07:12:43;;;;;;;31.58;21.77;;;;;;;;;;5055687;28;20950;-82
2024/03/07 07:15:10;;;;;;;31.30;22.02;;;;;;;;;;5055401;28;20463;-82
2024/03/07 07:17:36;;;;;;;31.80;21.98;;;;;;;;;;5055103;28;20385;-82
2024/03/07 07:20:09;;;;;;;33.55;21.88;;;;;;;;;;5055447;28;20787;-82
2024/03/07 07:22:35;;;;;;;35.35;23.42;;;;;;;;;;5047782;28;20379;-82
2024/03/07 07:25:01;;;;;;;33.30;22.00;;;;;;;;;;5035251;28;20417;-82
2024/03/07 07:27:27;;;;;;;34.93;23.07;;;;;;;;;;5035264;28;20391;-82
2024/03/07 07:29:53;;;;;;;34.78;23.27;;;;;;;;;;5035099;28;20383;-82
2024/03/07 07:32:19;;;;;;;33.25;22.83;;;;;;;;;;5035014;28;20379;-82
2024/03/07 07:34:48;;;;;;;36.08;23.50;;;;;;;;;;5037558;28;20977;-82
2024/03/07 07:37:14;;;;;;;35.88;23.45;;;;;;;;;;5033840;28;20937;-82
2024/03/07 07:39:40;;;;;;;36.88;23.08;;;;;;;;;;5034910;28;20502;-82
2024/03/07 07:42:09;;;;;;;35.53;23.43;;;;;;;;;;5035019;28;20470;-82
2024/03/07 07:44:35;;;;;;;32.17;22.48;;;;;;;;;;5035303;28;20961;-82
2024/03/07 07:47:01;;;;;;;36.10;23.13;;;;;;;;;;5035089;28;20409;-82
2024/03/07 07:49:28;;;;;;;33.60;22.47;;;;;;;;;;5036181;28;20502;-82
2024/03/07 07:51:54;;;;;;;32.37;22.17;;;;;;;;;;5038448;28;20443;-82
2024/03/07 07:54:21;;;;;;;34.47;22.83;;;;;;;;;;5037184;28;20856;-82
2024/03/07 07:56:47;;;;;;;34.35;23.33;;;;;;;;;;5038112;28;20469;-82
2024/03/07 07:59:14;;;;;;;34.70;22.48;;;;;;;;;;5037474;28;20449;-82
2024/03/07 08:01:40;;;;;;;35.00;23.65;;;;;;;;;;5038393;28;20425;-82
2024/03/07 08:04:06;;;;;;;33.47;22.40;;;;;;;;;;5041810;28;20406;-82
2024/03/07 08:06:32;;;;;;;34.42;22.67;;;;;;;;;;5043116;28;20386;-82
2024/03/07 08:08:58;;;;;;;35.00;23.15;;;;;;;;;;5040540;28;20387;-82
2024/03/07 08:11:24;;;;;;;35.70;23.25;;;;;;;;;;5038878;28;20406;-82
2024/03/07 08:13:51;;;;;;;37.65;24.70;;;;;;;;;;5039494;28;20386;-83
2024/03/07 08:16:17;;;;;;;37.55;23.73;;;;;;;;;;5039026;28;20465;-82
2024/03/07 08:18:44;;;;;;;33.97;23.50;;;;;;;;;;5038591;28;20465;-82
2024/03/07 08:21:10;;;;;;;35.95;23.90;;;;;;;;;;5048151;28;20382;-83
2024/03/07 08:23:37;;;;;;;37.30;24.02;;;;;;;;;;5058247;28;20712;-83
2024/03/07 08:26:03;;;;;;;34.92;23.55;;;;;;;;;;5057791;28;20382;-83
2024/03/07 08:28:29;;;;;;;37.20;24.43;;;;;;;;;;5057879;28;20920;-83
2024/03/07 08:30:55;;;;;;;38.28;24.85;;;;;;;;;;5057322;28;20386;-83
2024/03/07 08:33:21;;;;;;;34.92;23.20;;;;;;;;;;5057907;28;20378;-83
2024/03/07 08:35:49;;;;;;;34.15;23.00;;;;;;;;;;5057315;28;20382;-82
2024/03/07 08:38:16;;;;;;;33.90;22.83;;;;;;;;;;5057981;28;20370;-83
2024/03/07 08:40:42;;;;;;;37.60;24.85;;;;;;;;;;5056961;28;20382;-82
2024/03/07 08:43:08;;;;;;;54.72;34.47;;;;;;;;;;5057490;28;20395;-82
2024/03/07 08:45:34;;;;;;;38.88;25.45;;;;;;;;;;5057183;28;20493;-82
2024/03/07 08:48:00;;;;;;;36.97;23.67;;;;;;;;;;5057564;28;20715;-82
2024/03/07 08:50:26;;;;;;;43.97;28.40;;;;;;;;;;5056726;28;20470;-82
2024/03/07 08:52:52;;;;;;;39.90;24.85;;;;;;;;;;5057660;28;20739;-82
2024/03/07 08:55:27;;;;;;;39.38;23.65;;;;;;;;;;5057723;28;20381;-82
2024/03/07 08:57:53;;;;;;;51.40;30.85;;;;;;;;;;5057337;28;20417;-82
2024/03/07 09:00:23;;;;;;;36.60;23.07;;;;;;;;;;5057195;28;20469;-82
2024/03/07 09:02:53;;;;;;;35.85;23.65;;;;;;;;;;5057470;28;20397;-81
2024/03/07 09:05:20;;;;;;;37.53;24.45;;;;;;;;;;5056944;28;20413;-82
2024/03/07 09:07:46;;;;;;;37.80;23.40;;;;;;;;;;5056701;28;20374;-83
2024/03/07 09:10:14;;;;;;;38.55;24.35;;;;;;;;;;5056593;28;20731;-83
2024/03/07 09:12:40;;;;;;;34.35;23.88;;;;;;;;;;5056522;28;20384;-82
2024/03/07 09:15:06;;;;;;;33.47;21.80;;;;;;;;;;5056315;28;20922;-81
2024/03/07 09:17:32;;;;;;;34.25;22.38;;;;;;;;;;5056559;28;20452;-81
2024/03/07 09:19:58;;;;;;;34.85;22.25;;;;;;;;;;5056821;28;20412;-81
2024/03/07 09:22:25;;;;;;;31.67;21.52;;;;;;;;;;5056883;28;20735;-81
2024/03/07 09:24:51;;;;;;;33.40;21.67;;;;;;;;;;5056503;28;20409;-81
2024/03/07 09:27:19;;;;;;;31.77;21.20;;;;;;;;;;5056048;28;20381;-81
2024/03/07 09:29:48;;;;;;;31.77;21.77;;;;;;;;;;5055840;28;20380;-81
2024/03/07 09:32:15;;;;;;;30.50;20.35;;;;;;;;;;5054513;28;20421;-81
2024/03/07 09:34:41;;;;;;;34.28;22.10;;;;;;;;;;5055980;28;20474;-81
2024/03/07 09:37:07;;;;;;;32.55;20.92;;;;;;;;;;5055705;28;20393;-81
2024/03/07 09:39:34;;;;;;;33.25;21.83;;;;;;;;;;5052811;28;20381;-81
2024/03/07 09:42:01;;;;;;;34.35;22.65;;;;;;;;;;5035472;28;20853;-81
2024/03/07 09:44:28;;;;;;;31.30;21.23;;;;;;;;;;5035797;28;20497;-81
2024/03/07 09:46:58;;;;;;;31.80;22.35;;;;;;;;;;5036181;28;20398;-81
2024/03/07 09:49:25;;;;;;;31.13;21.75;;;;;;;;;;5035708;28;20407;-81
2024/03/07 09:51:56;;;;;;;32.60;21.40;;;;;;;;;;5035507;28;20383;-81
2024/03/07 09:54:24;;;;;;;30.83;21.15;;;;;;;;;;5035440;28;20382;-81
2024/03/07 09:56:51;;;;;;;30.27;21.50;;;;;;;;;;5035651;28;20387;-81
2024/03/07 09:59:20;;;;;;;31.10;20.20;;;;;;;;;;5034883;28;20379;-81
2024/03/07 10:01:47;;;;;;;30.08;21.23;;;;;;;;;;5035557;28;20387;-81
2024/03/07 10:04:14;;;;;;;30.70;20.80;;;;;;;;;;5034878;28;20499;-81
2024/03/07 10:06:46;;;;;;;31.33;21.25;;;;;;;;;;5035116;28;20386;-82
2024/03/07 10:09:13;;;;;;;31.93;21.80;;;;;;;;;;5035079;28;20833;-81
2024/03/07 10:11:41;;;;;;;32.67;21.73;;;;;;;;;;5034238;28;20391;-81
2024/03/07 10:14:07;;;;;;;31.10;21.33;;;;;;;;;;5048636;28;20897;-81
2024/03/07 10:16:33;;;;;;;37.35;23.27;;;;;;;;;;5055133;28;20846;-81
2024/03/07 10:19:04;;;;;;;33.55;22.02;;;;;;;;;;5054781;28;20385;-82
2024/03/07 10:21:30;;;;;;;30.38;21.30;;;;;;;;;;5055050;28;20926;-81
2024/03/07 10:24:08;;;;;;;33.65;22.13;;;;;;;;;;5054560;28;20443;-81
2024/03/07 10:26:40;;;;;;;36.67;22.97;;;;;;;;;;5054723;28;20434;-81
2024/03/07 10:29:10;;;;;;;35.08;23.38;;;;;;;;;;5054628;28;20400;-82
2024/03/07 10:31:41;;;;;;;38.87;24.67;;;;;;;;;;5054324;28;20384;-82
2024/03/07 10:34:08;;;;;;;80.53;42.47;;;;;;;;;;5053946;28;20720;-81
2024/03/07 10:36:35;;;;;;;38.33;25.10;;;;;;;;;;5054408;28;20378;-81
2024/03/07 10:39:12;;;;;;;32.53;22.65;;;;;;;;;;5054041;28;20439;-81
2024/03/07 10:41:38;;;;;;;28.48;21.17;;;;;;;;;;5054314;28;20431;-81
2024/03/07 10:44:05;;;;;;;31.00;22.00;;;;;;;;;;5054229;28;20970;-82
2024/03/07 10:46:31;;;;;;;44.33;29.17;;;;;;;;;;5055271;28;20704;-82
2024/03/07 10:49:00;;;;;;;39.83;25.50;;;;;;;;;;5053188;28;20743;-81
2024/03/07 10:51:52;;;;;;;33.43;22.60;;;;;;;;;;5054109;28;20393;-82
2024/03/07 10:54:25;;;;;;;33.45;22.08;;;;;;;;;;5054340;28;20461;-79
2024/03/07 10:56:57;;;;;;;30.70;20.98;;;;;;;;;;5057471;28;20380;-78
2024/03/07 10:59:29;;;;;;;96.97;49.60;;;;;;;;;;5056589;28;20847;-79
2024/03/07 11:02:19;;;;;;;126.43;58.88;;;;;;;;;;5053847;28;20844;-79
2024/03/07 11:04:57;;;;;;;38.83;29.58;;;;;;;;;;5056270;28;20406;-79
2024/03/07 11:07:24;;;;;;;36.00;25.40;;;;;;;;;;5054430;28;20386;-79
2024/03/07 11:09:51;;;;;;;35.95;24.75;;;;;;;;;;5052959;28;20385;-79
2024/03/07 11:12:18;;;;;;;36.75;24.63;;;;;;;;;;5054097;28;20382;-79
2024/03/07 11:14:46;;;;;;;36.67;25.35;;;;;;;;;;5035172;28;20952;-78
2024/03/07 11:17:13;;;;;;;37.70;26.02;;;;;;;;;;5051472;28;20751;-79
2024/03/07 11:19:39;;;;;;;36.67;25.42;;;;;;;;;;5055328;28;20385;-79
2024/03/07 11:22:18;;;;;;;36.75;25.02;;;;;;;;;;5058907;28;20389;-79
2024/03/07 11:24:45;;;;;;;38.85;25.85;;;;;;;;;;5057839;28;20928;-79
2024/03/07 11:27:14;;;;;;;35.60;25.88;;;;;;;;;;5057774;28;20460;-79
2024/03/07 11:29:56;;;;;;;37.13;25.45;;;;;;;;;;5057300;28;20705;-80
2024/03/07 11:32:22;;;;;;;39.92;26.08;;;;;;;;;;5058272;28;20405;-79
2024/03/07 11:34:50;;;;;;;37.15;25.33;;;;;;;;;;5057308;28;20392;-79
2024/03/07 11:37:35;;;;;;;35.88;24.55;;;;;;;;;;5057771;28;20409;-79
2024/03/07 11:40:08;;;;;;;37.00;24.98;;;;;;;;;;5056819;28;20794;-79
2024/03/07 11:42:35;;;;;;;38.78;26.10;;;;;;;;;;5057421;28;20382;-79
2024/03/07 11:45:03;;;;;;;37.40;25.55;;;;;;;;;;5057254;28;20397;-79
2024/03/07 11:47:38;;;;;;;36.60;25.35;;;;;;;;;;5056775;28;20396;-79
2024/03/07 11:50:08;;;;;;;38.60;25.08;;;;;;;;;;5056682;28;20476;-79
2024/03/07 11:52:36;;;;;;;35.65;24.92;;;;;;;;;;5058078;28;20762;-79
2024/03/07 11:55:05;;;;;;;37.22;24.63;;;;;;;;;;5055403;28;20393;-79
2024/03/07 11:57:34;;;;;;;38.40;25.88;;;;;;;;;;5055196;28;20385;-79
2024/03/07 12:00:01;;;;;;;41.13;26.80;;;;;;;;;;5056339;28;20388;-79
2024/03/07 12:02:29;;;;;;;40.30;27.55;;;;;;;;;;5056259;28;20386;-80
2024/03/07 12:04:55;;;;;;;37.70;26.13;;;;;;;;;;5056466;28;20409;-79
2024/03/07 12:07:22;;;;;;;39.08;25.27;;;;;;;;;;5055535;28;20391;-79
2024/03/07 12:09:53;;;;;;;41.33;26.40;;;;;;;;;;5056250;28;20384;-79
2024/03/07 12:12:21;;;;;;;36.88;24.30;;;;;;;;;;5056384;28;20382;-79
2024/03/07 12:14:47;;;;;;;36.58;24.58;;;;;;;;;;5056039;28;20377;-79
2024/03/07 12:17:16;;;;;;;36.47;24.77;;;;;;;;;;5055648;28;20385;-79
2024/03/07 12:19:42;;;;;;;34.65;23.83;;;;;;;;;;5055799;28;20414;-80
2024/03/07 12:22:12;;;;;;;36.22;24.50;;;;;;;;;;5056615;28;20396;-80
2024/03/07 12:24:40;;;;;;;32.92;23.15;;;;;;;;;;5055387;28;20980;-80
2024/03/07 12:27:09;;;;;;;33.13;23.67;;;;;;;;;;5056702;28;20382;-80
2024/03/07 12:29:38;;;;;;;34.23;23.63;;;;;;;;;;5054808;28;20732;-80
2024/03/07 12:32:06;;;;;;;37.35;24.50;;;;;;;;;;5056872;28;20719;-80
2024/03/07 12:34:36;;;;;;;33.15;23.27;;;;;;;;;;5055681;28;20823;-80
2024/03/07 12:37:03;;;;;;;31.27;22.90;;;;;;;;;;5059124;28;20397;-79
2024/03/07 12:39:35;;;;;;;31.55;22.23;;;;;;;;;;5059065;28;20377;-80
2024/03/07 12:42:02;;;;;;;38.03;25.23;;;;;;;;;;5059097;28;20393;-79
2024/03/07 12:44:28;;;;;;;35.08;23.38;;;;;;;;;;5058887;28;20412;-80
2024/03/07 12:46:55;;;;;;;35.88;23.58;;;;;;;;;;5059492;28;20382;-79
2024/03/07 12:49:27;;;;;;;32.85;23.55;;;;;;;;;;5056955;28;20409;-80
2024/03/07 12:51:55;;;;;;;35.78;23.75;;;;;;;;;;5058553;28;20388;-80
2024/03/07 12:54:22;;;;;;;36.75;24.40;;;;;;;;;;5058572;28;20723;-80
2024/03/07 12:56:50;;;;;;;33.85;23.52;;;;;;;;;;5058458;28;20377;-80
2024/03/07 12:59:16;;;;;;;35.15;24.38;;;;;;;;;;5059154;28;20385;-80
2024/03/07 13:01:44;;;;;;;44.35;28.38;;;;;;;;;;5058826;28;20906;-80
2024/03/07 13:04:11;;;;;;;36.22;23.92;;;;;;;;;;5058262;28;20412;-80
2024/03/07 13:06:37;;;;;;;34.65;23.45;;;;;;;;;;5058952;28;20446;-80
2024/03/07 13:09:09;;;;;;;46.45;29.55;;;;;;;;;;5059095;28;20784;-79
2024/03/07 13:11:40;;;;;;;41.58;25.92;;;;;;;;;;5040245;28;20434;-80
2024/03/07 13:14:06;;;;;;;35.63;24.90;;;;;;;;;;5038964;28;20379;-81
2024/03/07 13:16:32;;;;;;;37.75;23.88;;;;;;;;;;5038254;28;20397;-80
2024/03/07 13:18:58;;;;;;;35.87;24.37;;;;;;;;;;5039509;28;20399;-80
2024/03/07 13:21:26;;;;;;;35.78;25.25;;;;;;;;;;5038216;28;20379;-80
2024/03/07 13:23:52;;;;;;;35.22;23.63;;;;;;;;;;5055493;28;20405;-80
2024/03/07 13:26:24;;;;;;;33.63;22.83;;;;;;;;;;5058079;28;20384;-79
2024/03/07 13:28:54;;;;;;;44.70;28.75;;;;;;;;;;5058858;28;20932;-79
2024/03/07 13:31:20;;;;;;;32.00;22.48;;;;;;;;;;5058452;28;20808;-79
2024/03/07 13:33:46;;;;;;;35.92;25.00;;;;;;;;;;5056990;28;20393;-79
2024/03/07 13:36:20;;;;;;;35.17;26.13;;;;;;;;;;5057790;28;20857;-79
2024/03/07 13:38:46;;;;;;;33.90;24.25;;;;;;;;;;5057695;28;20370;-79
2024/03/07 13:41:12;;;;;;;34.67;23.13;;;;;;;;;;5057425;28;20373;-79
2024/03/07 13:43:38;;;;;;;32.15;22.65;;;;;;;;;;5056660;28;20374;-79
2024/03/07 13:46:05;;;;;;;32.58;23.85;;;;;;;;;;5056204;28;20892;-79
2024/03/07 13:48:32;;;;;;;47.50;32.10;;;;;;;;;;5057040;28;20374;-79
2024/03/07 13:50:59;;;;;;;38.88;25.88;;;;;;;;;;5057008;28;20932;-79
2024/03/07 13:56:17;;;;;;;37.08;24.65;;;;;;;;;;5057225;28;20401;-79
2024/03/07 13:58:45;;;;;;;34.13;23.00;;;;;;;;;;5056999;28;20373;-79
2024/03/07 14:01:30;;;;;;;34.17;24.27;;;;;;;;;;5057393;28;20894;-79
2024/03/07 14:04:15;;;;;;;34.05;24.42;;;;;;;;;;5056060;28;20416;-79
2024/03/07 14:06:50;;;;;;;36.25;24.55;;;;;;;;;;5057411;28;20374;-79
2024/03/07 14:09:25;;;;;;;34.23;24.60;;;;;;;;;;5056794;28;20370;-79
2024/03/07 14:12:07;;;;;;;34.80;25.43;;;;;;;;;;5056849;28;20877;-79
2024/03/07 14:14:49;;;;;;;36.63;25.27;;;;;;;;;;5056579;28;20377;-79
2024/03/07 14:17:34;;;;;;;36.08;25.30;;;;;;;;;;5056898;28;20404;-78
2024/03/07 14:20:20;;;;;;;35.60;25.45;;;;;;;;;;5056438;28;20381;-79
2024/03/07 14:23:05;;;;;;;36.78;25.67;;;;;;;;;;5055572;28;20859;-80
2024/03/07 14:25:55;;;;;;;34.45;23.90;;;;;;;;;;5056924;28;21214;-79